sensor_id;sensor_type;location;lat;lon;timestamp;pressure;altitude;pressure_sealevel;temperature;humidity
9460;BME280;4768;42.664;23.240;2022-09-30T00:02:18;-9776.66;;;12.83;100.00
9460;BME280;4768;42.664;23.240;2022-09-30T00:04:45;-9777.66;;;12.86;100.00
9460;BME280;4768;42.664;23.240;2022-09-30T00:07:11;-9778.78;;;12.90;100.00
9460;BME280;4768;42.664;23.240;2022-09-30T00:09:38;-9779.22;;;12.92;100.00
9460;BME280;4768;42.664;23.240;2022-09-30T00:12:05;-9772.25;;;12.67;100.00
9460;BME280;4768;42.664;23.240;2022-09-30T00:14:31;-9774.94;;;12.77;100.00
9460;BME280;4768;42.664;23.240;2022-09-30T00:16:58;-9776.66;;;12.83;100.00
9460;BME280;4768;42.664;23.240;2022-09-30T00:19:27;-9775.38;;;12.78;100.00
9460;BME280;4768;42.664;23.240;2022-09-30T00:21:53;-9775.66;;;12.79;100.00
9460;BME280;4768;42.664;23.240;2022-09-30T00:24:20;-9777.09;;;12.84;100.00
9460;BME280;4768;42.664;23.240;2022-09-30T00:26:47;-9777.22;;;12.85;100.00
9460;BME280;4768;42.664;23.240;2022-09-30T00:29:14;-9770.41;;;12.61;100.00
9460;BME280;4768;42.664;23.240;2022-09-30T00:31:40;-9770.13;;;12.60;100.00
9460;BME280;4768;42.664;23.240;2022-09-30T00:34:08;-9770.81;;;12.62;100.00
9460;BME280;4768;42.664;23.240;2022-09-30T00:36:40;-9773.09;;;12.70;100.00
9460;BME280;4768;42.664;23.240;2022-09-30T00:39:11;-9772.53;;;12.68;100.00
9460;BME280;4768;42.664;23.240;2022-09-30T00:41:39;-9772.09;;;12.67;100.00
9460;BME280;4768;42.664;23.240;2022-09-30T00:44:44;-9772.66;;;12.69;100.00
9460;BME280;4768;42.664;23.240;2022-09-30T00:47:33;-9773.09;;;12.70;100.00
9460;BME280;4768;42.664;23.240;2022-09-30T00:50:11;-9773.94;;;12.73;100.00
9460;BME280;4768;42.664;23.240;2022-09-30T00:52:41;-9773.81;;;12.73;100.00
9460;BME280;4768;42.664;23.240;2022-09-30T00:55:18;-9769.25;;;12.57;100.00
9460;BME280;4768;42.664;23.240;2022-09-30T00:57:46;-9769.81;;;12.59;100.00
9460;BME280;4768;42.664;23.240;2022-09-30T01:00:12;-9766.84;;;12.49;100.00
9460;BME280;4768;42.664;23.240;2022-09-30T01:02:39;-9766.84;;;12.49;100.00
9460;BME280;4768;42.664;23.240;2022-09-30T01:05:07;-9762.16;;;12.32;100.00
9460;BME280;4768;42.664;23.240;2022-09-30T01:07:35;-9767.41;;;12.51;100.00
9460;BME280;4768;42.664;23.240;2022-09-30T01:10:03;-9767.97;;;12.53;100.00
9460;BME280;4768;42.664;23.240;2022-09-30T01:12:30;-9767.84;;;12.52;100.00
9460;BME280;4768;42.664;23.240;2022-09-30T01:14:58;-9766.84;;;12.49;100.00
9460;BME280;4768;42.664;23.240;2022-09-30T01:17:35;-9762.88;;;12.35;100.00
9460;BME280;4768;42.664;23.240;2022-09-30T01:20:40;-9760.16;;;12.25;100.00
9460;BME280;4768;42.664;23.240;2022-09-30T01:23:52;-9761.31;;;12.29;100.00
9460;BME280;4768;42.664;23.240;2022-09-30T01:26:43;-9760.72;;;12.27;100.00
9460;BME280;4768;42.664;23.240;2022-09-30T01:32:32;-9764.56;;;12.41;100.00
9460;BME280;4768;42.664;23.240;2022-09-30T01:35:07;-9765.56;;;12.44;100.00
9460;BME280;4768;42.664;23.240;2022-09-30T01:37:45;-9768.13;;;12.53;100.00
9460;BME280;4768;42.664;23.240;2022-09-30T01:40:21;-9767.97;;;12.53;100.00
9460;BME280;4768;42.664;23.240;2022-09-30T01:42:55;-9769.25;;;12.57;100.00
9460;BME280;4768;42.664;23.240;2022-09-30T01:45:32;-9772.25;;;12.67;100.00
9460;BME280;4768;42.664;23.240;2022-09-30T01:48:04;-9767.41;;;12.51;100.00
9460;BME280;4768;42.664;23.240;2022-09-30T01:50:41;-9764.72;;;12.41;100.00
9460;BME280;4768;42.664;23.240;2022-09-30T01:53:18;-9770.97;;;12.63;100.00
9460;BME280;4768;42.664;23.240;2022-09-30T01:55:49;-9763.00;;;12.35;100.00
9460;BME280;4768;42.664;23.240;2022-09-30T01:58:23;-9764.44;;;12.40;100.00
9460;BME280;4768;42.664;23.240;2022-09-30T02:00:57;-9766.84;;;12.49;100.00
9460;BME280;4768;42.664;23.240;2022-09-30T02:03:30;-9767.41;;;12.51;100.00
9460;BME280;4768;42.664;23.240;2022-09-30T02:06:02;-9769.13;;;12.56;100.00
9460;BME280;4768;42.664;23.240;2022-09-30T02:08:37;-9764.28;;;12.40;100.00
9460;BME280;4768;42.664;23.240;2022-09-30T02:11:09;-9762.28;;;12.33;100.00
9460;BME280;4768;42.664;23.240;2022-09-30T02:13:42;-9769.25;;;12.57;100.00
9460;BME280;4768;42.664;23.240;2022-09-30T02:16:15;-9764.16;;;12.39;100.00
9460;BME280;4768;42.664;23.240;2022-09-30T02:18:47;-9765.00;;;12.42;100.00
9460;BME280;4768;42.664;23.240;2022-09-30T02:21:20;-9761.59;;;12.30;100.00
9460;BME280;4768;42.664;23.240;2022-09-30T02:23:52;-9760.44;;;12.26;100.00
9460;BME280;4768;42.664;23.240;2022-09-30T02:26:23;-9754.34;;;12.05;100.00
9460;BME280;4768;42.664;23.240;2022-09-30T02:28:54;-9753.78;;;12.03;100.00
9460;BME280;4768;42.664;23.240;2022-09-30T02:31:25;-9758.47;;;12.19;100.00
9460;BME280;4768;42.664;23.240;2022-09-30T02:33:57;-9757.47;;;12.16;100.00
9460;BME280;4768;42.664;23.240;2022-09-30T02:36:29;-9757.03;;;12.14;100.00
9460;BME280;4768;42.664;23.240;2022-09-30T02:39:01;-9754.47;;;12.06;100.00
9460;BME280;4768;42.664;23.240;2022-09-30T02:41:32;-9762.59;;;12.34;100.00
9460;BME280;4768;42.664;23.240;2022-09-30T02:44:03;-9757.75;;;12.17;100.00
9460;BME280;4768;42.664;23.240;2022-09-30T02:46:40;-9755.75;;;12.10;100.00
9460;BME280;4768;42.664;23.240;2022-09-30T02:49:16;-9754.91;;;12.07;100.00
9460;BME280;4768;42.664;23.240;2022-09-30T02:51:54;-9750.78;;;11.93;100.00
9460;BME280;4768;42.664;23.240;2022-09-30T02:54:29;-9753.19;;;12.01;100.00
9460;BME280;4768;42.664;23.240;2022-09-30T02:57:04;-9752.50;;;11.99;100.00
9460;BME280;4768;42.664;23.240;2022-09-30T02:59:33;-9757.19;;;12.15;100.00
9460;BME280;4768;42.664;23.240;2022-09-30T03:02:00;-9758.19;;;12.18;100.00
9460;BME280;4768;42.664;23.240;2022-09-30T03:04:30;-9760.03;;;12.25;100.00
9460;BME280;4768;42.664;23.240;2022-09-30T03:06:58;-9757.75;;;12.17;100.00
9460;BME280;4768;42.664;23.240;2022-09-30T03:09:26;-9756.19;;;12.11;100.00
9460;BME280;4768;42.664;23.240;2022-09-30T03:11:55;-9758.31;;;12.19;100.00
9460;BME280;4768;42.664;23.240;2022-09-30T03:14:39;-9754.34;;;12.05;100.00
9460;BME280;4768;42.664;23.240;2022-09-30T03:17:28;-9754.19;;;12.05;100.00
9460;BME280;4768;42.664;23.240;2022-09-30T03:20:12;-9756.75;;;12.13;100.00
9460;BME280;4768;42.664;23.240;2022-09-30T03:23:04;-9757.59;;;12.16;100.00
9460;BME280;4768;42.664;23.240;2022-09-30T03:25:42;-9756.47;;;12.12;100.00
9460;BME280;4768;42.664;23.240;2022-09-30T03:28:18;-9755.19;;;12.08;100.00
9460;BME280;4768;42.664;23.240;2022-09-30T03:30:54;-9754.34;;;12.05;100.00
9460;BME280;4768;42.664;23.240;2022-09-30T03:33:30;-9755.34;;;12.08;100.00
9460;BME280;4768;42.664;23.240;2022-09-30T03:36:04;-9756.19;;;12.11;100.00
9460;BME280;4768;42.664;23.240;2022-09-30T03:38:37;-9758.31;;;12.19;100.00
9460;BME280;4768;42.664;23.240;2022-09-30T03:41:12;-9758.59;;;12.20;100.00
9460;BME280;4768;42.664;23.240;2022-09-30T03:43:45;-9759.47;;;12.23;100.00
9460;BME280;4768;42.664;23.240;2022-09-30T03:46:17;-9761.59;;;12.30;100.00
9460;BME280;4768;42.664;23.240;2022-09-30T03:48:48;-9763.00;;;12.35;100.00
9460;BME280;4768;42.664;23.240;2022-09-30T03:51:18;-9765.00;;;12.42;100.00
9460;BME280;4768;42.664;23.240;2022-09-30T03:53:46;-9765.28;;;12.43;100.00
9460;BME280;4768;42.664;23.240;2022-09-30T03:56:13;-9767.41;;;12.51;100.00
9460;BME280;4768;42.664;23.240;2022-09-30T03:58:42;-9767.28;;;12.50;100.00
9460;BME280;4768;42.664;23.240;2022-09-30T04:01:16;-9768.41;;;12.54;100.00
9460;BME280;4768;42.664;23.240;2022-09-30T04:03:46;-9768.13;;;12.53;100.00
9460;BME280;4768;42.664;23.240;2022-09-30T04:06:13;-9768.25;;;12.53;100.00
9460;BME280;4768;42.664;23.240;2022-09-30T04:08:41;-9767.69;;;12.52;100.00
9460;BME280;4768;42.664;23.240;2022-09-30T04:11:09;-9767.69;;;12.52;100.00
9460;BME280;4768;42.664;23.240;2022-09-30T04:13:36;-9768.25;;;12.53;100.00
9460;BME280;4768;42.664;23.240;2022-09-30T04:16:03;-9768.13;;;12.53;100.00
9460;BME280;4768;42.664;23.240;2022-09-30T04:18:30;-9768.69;;;12.55;100.00
9460;BME280;4768;42.664;23.240;2022-09-30T04:20:57;-9768.53;;;12.54;100.00
9460;BME280;4768;42.664;23.240;2022-09-30T04:23:24;-9769.41;;;12.57;100.00
9460;BME280;4768;42.664;23.240;2022-09-30T04:25:52;-9767.56;;;12.51;100.00
9460;BME280;4768;42.664;23.240;2022-09-30T04:28:20;-9766.84;;;12.49;100.00
9460;BME280;4768;42.664;23.240;2022-09-30T04:30:46;-9765.00;;;12.42;100.00
9460;BME280;4768;42.664;23.240;2022-09-30T04:33:13;-9764.28;;;12.40;100.00
9460;BME280;4768;42.664;23.240;2022-09-30T04:35:40;-9763.72;;;12.38;100.00
9460;BME280;4768;42.664;23.240;2022-09-30T04:38:06;-9764.44;;;12.40;100.00
9460;BME280;4768;42.664;23.240;2022-09-30T04:40:35;-9762.16;;;12.32;100.00
9460;BME280;4768;42.664;23.240;2022-09-30T04:43:04;-9763.28;;;12.36;100.00
9460;BME280;4768;42.664;23.240;2022-09-30T04:45:31;-9760.59;;;12.27;100.00
9460;BME280;4768;42.664;23.240;2022-09-30T04:47:57;-9761.88;;;12.31;100.00
9460;BME280;4768;42.664;23.240;2022-09-30T04:50:24;-9761.31;;;12.29;100.00
9460;BME280;4768;42.664;23.240;2022-09-30T04:52:51;-9763.44;;;12.37;100.00
9460;BME280;4768;42.664;23.240;2022-09-30T04:55:20;-9761.16;;;12.29;100.00
9460;BME280;4768;42.664;23.240;2022-09-30T04:57:48;-9759.88;;;12.24;100.00
9460;BME280;4768;42.664;23.240;2022-09-30T05:00:16;-9763.16;;;12.36;100.00
9460;BME280;4768;42.664;23.240;2022-09-30T05:02:44;-9763.00;;;12.35;100.00
9460;BME280;4768;42.664;23.240;2022-09-30T05:05:11;-9764.72;;;12.41;100.00
9460;BME280;4768;42.664;23.240;2022-09-30T05:07:38;-9766.41;;;12.47;100.00
9460;BME280;4768;42.664;23.240;2022-09-30T05:10:06;-9767.97;;;12.53;100.00
9460;BME280;4768;42.664;23.240;2022-09-30T05:12:33;-9767.84;;;12.52;100.00
9460;BME280;4768;42.664;23.240;2022-09-30T05:15:00;-9768.84;;;12.55;100.00
9460;BME280;4768;42.664;23.240;2022-09-30T05:17:30;-9766.41;;;12.47;100.00
9460;BME280;4768;42.664;23.240;2022-09-30T05:19:57;-9768.25;;;12.53;100.00
9460;BME280;4768;42.664;23.240;2022-09-30T05:22:25;-9770.25;;;12.60;100.00
9460;BME280;4768;42.664;23.240;2022-09-30T05:24:53;-9771.66;;;12.65;100.00
9460;BME280;4768;42.664;23.240;2022-09-30T05:27:21;-9770.69;;;12.62;100.00
9460;BME280;4768;42.664;23.240;2022-09-30T05:29:47;-9772.81;;;12.69;100.00
9460;BME280;4768;42.664;23.240;2022-09-30T05:32:14;-9771.81;;;12.66;100.00
9460;BME280;4768;42.664;23.240;2022-09-30T05:34:43;-9773.81;;;12.73;100.00
9460;BME280;4768;42.664;23.240;2022-09-30T05:37:10;-9777.50;;;12.86;100.00
9460;BME280;4768;42.664;23.240;2022-09-30T05:39:37;-9768.41;;;12.54;100.00
9460;BME280;4768;42.664;23.240;2022-09-30T05:42:03;-9772.09;;;12.67;100.00
9460;BME280;4768;42.664;23.240;2022-09-30T05:44:30;-9768.97;;;12.56;100.00
9460;BME280;4768;42.664;23.240;2022-09-30T05:46:57;-9776.09;;;12.81;100.00
9460;BME280;4768;42.664;23.240;2022-09-30T05:49:24;-9777.78;;;12.87;100.00
9460;BME280;4768;42.664;23.240;2022-09-30T05:51:52;-9779.50;;;12.93;100.00
9460;BME280;4768;42.664;23.240;2022-09-30T05:54:20;-9770.81;;;12.62;100.00
9460;BME280;4768;42.664;23.240;2022-09-30T05:56:46;-9770.25;;;12.60;100.00
9460;BME280;4768;42.664;23.240;2022-09-30T05:59:13;-9776.09;;;12.81;100.00
9460;BME280;4768;42.664;23.240;2022-09-30T06:01:40;-9773.09;;;12.70;100.00
9460;BME280;4768;42.664;23.240;2022-09-30T06:04:06;-9771.81;;;12.66;100.00
9460;BME280;4768;42.664;23.240;2022-09-30T06:06:33;-9783.06;;;13.05;100.00
9460;BME280;4768;42.664;23.240;2022-09-30T06:09:01;-9780.06;;;12.95;100.00
9460;BME280;4768;42.664;23.240;2022-09-30T06:11:28;-9783.34;;;13.06;100.00
9460;BME280;4768;42.664;23.240;2022-09-30T06:13:55;-9784.91;;;13.11;100.00
9460;BME280;4768;42.664;23.240;2022-09-30T06:16:22;-9780.34;;;12.96;100.00
9460;BME280;4768;42.664;23.240;2022-09-30T06:18:49;-9779.94;;;12.94;100.00
9460;BME280;4768;42.664;23.240;2022-09-30T06:21:16;-9785.47;;;13.13;100.00
9460;BME280;4768;42.664;23.240;2022-09-30T06:23:44;-9784.19;;;13.09;100.00
9460;BME280;4768;42.664;23.240;2022-09-30T06:26:13;-9789.31;;;13.27;100.00
9460;BME280;4768;42.664;23.240;2022-09-30T06:28:40;-9783.91;;;13.08;100.00
9460;BME280;4768;42.664;23.240;2022-09-30T06:31:09;-9791.44;;;13.34;100.00
9460;BME280;4768;42.664;23.240;2022-09-30T06:33:36;-9788.88;;;13.25;100.00
9460;BME280;4768;42.664;23.240;2022-09-30T06:36:03;-9787.19;;;13.19;100.00
9460;BME280;4768;42.664;23.240;2022-09-30T06:38:31;-9790.16;;;13.30;100.00
9460;BME280;4768;42.664;23.240;2022-09-30T06:40:59;-9789.72;;;13.28;100.00
9460;BME280;4768;42.664;23.240;2022-09-30T06:43:27;-9797.28;;;13.54;100.00
9460;BME280;4768;42.664;23.240;2022-09-30T06:45:54;-9810.22;;;14.00;100.00
9460;BME280;4768;42.664;23.240;2022-09-30T06:48:20;-9806.22;;;13.86;100.00
9460;BME280;4768;42.664;23.240;2022-09-30T06:50:48;-9807.66;;;13.91;100.00
9460;BME280;4768;42.664;23.240;2022-09-30T06:53:20;-9808.94;;;13.95;100.00
9460;BME280;4768;42.664;23.240;2022-09-30T06:55:46;-9812.78;;;14.08;100.00
9460;BME280;4768;42.664;23.240;2022-09-30T06:58:14;-9811.06;;;14.02;100.00
9460;BME280;4768;42.664;23.240;2022-09-30T07:00:42;-9805.25;;;13.82;100.00
9460;BME280;4768;42.664;23.240;2022-09-30T07:03:21;-9806.94;;;13.88;100.00
9460;BME280;4768;42.664;23.240;2022-09-30T07:05:54;-9807.22;;;13.89;100.00
9460;BME280;4768;42.664;23.240;2022-09-30T07:08:21;-9804.09;;;13.78;100.00
9460;BME280;4768;42.664;23.240;2022-09-30T07:10:50;-9800.81;;;13.67;100.00
9460;BME280;4768;42.664;23.240;2022-09-30T07:13:17;-9807.66;;;13.91;100.00
9460;BME280;4768;42.664;23.240;2022-09-30T07:15:45;-9807.38;;;13.90;100.00
9460;BME280;4768;42.664;23.240;2022-09-30T07:18:11;-9809.06;;;13.96;100.00
9460;BME280;4768;42.664;23.240;2022-09-30T07:20:38;-9808.66;;;13.94;100.00
9460;BME280;4768;42.664;23.240;2022-09-30T07:23:05;-9811.22;;;14.03;100.00
9460;BME280;4768;42.664;23.240;2022-09-30T07:25:32;-9816.06;;;14.20;100.00
9460;BME280;4768;42.664;23.240;2022-09-30T07:27:59;-9810.22;;;14.00;100.00
9460;BME280;4768;42.664;23.240;2022-09-30T07:30:27;-9809.22;;;13.96;100.00
9460;BME280;4768;42.664;23.240;2022-09-30T07:32:56;-9816.19;;;14.20;100.00
9460;BME280;4768;42.664;23.240;2022-09-30T07:35:22;-9817.06;;;14.23;100.00
9460;BME280;4768;42.664;23.240;2022-09-30T07:37:49;-9838.81;;;14.99;100.00
9460;BME280;4768;42.664;23.240;2022-09-30T07:40:16;-9847.38;;;15.29;100.00
9460;BME280;4768;42.664;23.240;2022-09-30T07:42:44;-9848.22;;;15.32;100.00
9460;BME280;4768;42.664;23.240;2022-09-30T07:45:11;-9836.69;;;14.92;100.00
9460;BME280;4768;42.664;23.240;2022-09-30T07:47:40;-9838.81;;;14.99;100.00
9460;BME280;4768;42.664;23.240;2022-09-30T07:50:08;-9842.25;;;15.11;100.00
9460;BME280;4768;42.664;23.240;2022-09-30T07:52:35;-9844.94;;;15.20;100.00
9460;BME280;4768;42.664;23.240;2022-09-30T07:55:02;-9862.31;;;15.81;100.00
9460;BME280;4768;42.664;23.240;2022-09-30T07:57:28;-9873.44;;;16.19;100.00
9460;BME280;4768;42.664;23.240;2022-09-30T07:59:55;-9883.84;;;16.55;100.00
9460;BME280;4768;42.664;23.240;2022-09-30T08:02:22;-9897.66;;;17.03;100.00
9460;BME280;4768;42.664;23.240;2022-09-30T08:04:49;-9915.91;;;17.67;100.00
9460;BME280;4768;42.664;23.240;2022-09-30T08:07:18;-9910.63;;;17.48;100.00
9460;BME280;4768;42.664;23.240;2022-09-30T08:09:45;-9908.06;;;17.40;100.00
9460;BME280;4768;42.664;23.240;2022-09-30T08:12:12;-9913.19;;;17.57;100.00
9460;BME280;4768;42.664;23.240;2022-09-30T08:14:38;-9919.63;;;17.80;100.00
9460;BME280;4768;42.664;23.240;2022-09-30T08:17:05;-9911.63;;;17.52;100.00
9460;BME280;4768;42.664;23.240;2022-09-30T08:19:32;-9912.22;;;17.54;100.00
9460;BME280;4768;42.664;23.240;2022-09-30T08:21:59;-9909.94;;;17.46;100.00
9460;BME280;4768;42.664;23.240;2022-09-30T08:24:28;-9938.88;;;18.46;100.00
9460;BME280;4768;42.664;23.240;2022-09-30T08:26:55;-9951.00;;;18.88;100.00
9460;BME280;4768;42.664;23.240;2022-09-30T08:29:21;-9953.84;;;18.98;100.00
9460;BME280;4768;42.664;23.240;2022-09-30T08:31:48;-9927.03;;;18.05;100.00
9460;BME280;4768;42.664;23.240;2022-09-30T08:34:15;-9934.03;;;18.30;100.00
9460;BME280;4768;42.664;23.240;2022-09-30T08:36:42;-9923.91;;;17.94;100.00
9460;BME280;4768;42.664;23.240;2022-09-30T08:39:10;-9910.63;;;17.48;100.00
9460;BME280;4768;42.664;23.240;2022-09-30T08:41:55;-9919.03;;;17.78;100.00
9460;BME280;4768;42.664;23.240;2022-09-30T08:44:38;-9920.75;;;17.84;100.00
9460;BME280;4768;42.664;23.240;2022-09-30T08:47:17;-9927.19;;;18.06;100.00
9460;BME280;4768;42.664;23.240;2022-09-30T08:50:00;-9937.47;;;18.42;100.00
9460;BME280;4768;42.664;23.240;2022-09-30T08:52:32;-9937.16;;;18.41;100.00
9460;BME280;4768;42.664;23.240;2022-09-30T08:55:00;-9939.16;;;18.47;100.00
9460;BME280;4768;42.664;23.240;2022-09-30T08:57:34;-9944.59;;;18.66;100.00
9460;BME280;4768;42.664;23.240;2022-09-30T09:00:04;-9947.00;;;18.75;100.00
9460;BME280;4768;42.664;23.240;2022-09-30T09:02:42;-9951.28;;;18.89;100.00
9460;BME280;4768;42.664;23.240;2022-09-30T09:05:17;-9954.72;;;19.01;100.00
9460;BME280;4768;42.664;23.240;2022-09-30T09:07:54;-9954.72;;;19.01;100.00
9460;BME280;4768;42.664;23.240;2022-09-30T09:10:30;-9959.00;;;19.16;100.00
9460;BME280;4768;42.664;23.240;2022-09-30T09:13:07;-9968.56;;;19.49;100.00
9460;BME280;4768;42.664;23.240;2022-09-30T09:15:49;-9969.28;;;19.52;100.00
9460;BME280;4768;42.664;23.240;2022-09-30T09:18:35;-9976.13;;;19.76;100.00
9460;BME280;4768;42.664;23.240;2022-09-30T09:21:16;-9971.56;;;19.60;100.00
9460;BME280;4768;42.664;23.240;2022-09-30T09:23:47;-9996.56;;;20.46;100.00
9460;BME280;4768;42.664;23.240;2022-09-30T09:26:15;-10014.13;;;21.07;100.00
9460;BME280;4768;42.664;23.240;2022-09-30T09:28:54;-10023.84;;;21.41;100.00
9460;BME280;4768;42.664;23.240;2022-09-30T09:31:25;-10024.41;;;21.43;100.00
9460;BME280;4768;42.664;23.240;2022-09-30T09:33:55;-3766.66;;;21.58;100.00
9460;BME280;4768;42.664;23.240;2022-09-30T09:36:36;30181.75;;;21.78;100.00
9460;BME280;4768;42.664;23.240;2022-09-30T09:39:18;17892.78;;;21.91;100.00
9460;BME280;4768;42.664;23.240;2022-09-30T09:41:53;26670.16;;;21.94;100.00
9460;BME280;4768;42.664;23.240;2022-09-30T09:44:29;99554.94;;;22.21;100.00
9460;BME280;4768;42.664;23.240;2022-09-30T09:47:00;172916.34;;;22.31;100.00
9460;BME280;4768;42.664;23.240;2022-09-30T09:49:34;172908.31;;;22.28;100.00
9460;BME280;4768;42.664;23.240;2022-09-30T09:55:09;172957.94;;;22.46;100.00
9460;BME280;4768;42.664;23.240;2022-09-30T09:57:36;173014.31;;;22.67;100.00
9460;BME280;4768;42.664;23.240;2022-09-30T10:00:07;172953.94;;;22.45;100.00
9460;BME280;4768;42.664;23.240;2022-09-30T10:03:00;173007.66;;;22.65;100.00
9460;BME280;4768;42.664;23.240;2022-09-30T10:05:28;173015.69;;;22.68;100.00
9460;BME280;4768;42.664;23.240;2022-09-30T10:08:11;173085.50;;;22.93;100.00
9460;BME280;4768;42.664;23.240;2022-09-30T10:10:46;173140.63;;;23.14;100.00
9460;BME280;4768;42.664;23.240;2022-09-30T10:13:17;173060.00;;;22.84;100.00
9460;BME280;4768;42.664;23.240;2022-09-30T10:15:46;173034.47;;;22.75;100.00
9460;BME280;4768;42.664;23.240;2022-09-30T10:18:20;173120.47;;;23.06;100.00
9460;BME280;4768;42.664;23.240;2022-09-30T10:20:51;173104.34;;;23.00;100.00
9460;BME280;4768;42.664;23.240;2022-09-30T10:23:21;173082.84;;;22.92;100.00
9460;BME280;4768;42.664;23.240;2022-09-30T10:26:00;173128.53;;;23.09;100.00
9460;BME280;4768;42.664;23.240;2022-09-30T10:28:31;173104.34;;;23.00;100.00
9460;BME280;4768;42.664;23.240;2022-09-30T10:31:02;173049.25;;;22.80;100.00
9460;BME280;4768;42.664;23.240;2022-09-30T10:33:33;173029.09;;;22.73;100.00
9460;BME280;4768;42.664;23.240;2022-09-30T10:36:07;173121.78;;;23.07;100.00
9460;BME280;4768;42.664;23.240;2022-09-30T10:38:36;173182.22;;;23.29;100.00
9460;BME280;4768;42.664;23.240;2022-09-30T10:41:10;173197.00;;;23.34;100.00
9460;BME280;4768;42.664;23.240;2022-09-30T10:43:41;173230.63;;;23.47;100.00
9460;BME280;4768;42.664;23.240;2022-09-30T10:46:10;173246.72;;;23.53;100.00
9460;BME280;4768;42.664;23.240;2022-09-30T10:48:39;173190.28;;;23.32;100.00
9460;BME280;4768;42.664;23.240;2022-09-30T10:51:22;173154.03;;;23.19;100.00
9460;BME280;4768;42.664;23.240;2022-09-30T10:53:49;173252.09;;;23.55;100.00
9460;BME280;4768;42.664;23.240;2022-09-30T10:56:40;173221.19;;;23.43;100.00
9460;BME280;4768;42.664;23.240;2022-09-30T10:59:32;173241.31;;;23.51;100.00
9460;BME280;4768;42.664;23.240;2022-09-30T11:02:10;173223.88;;;23.44;100.00
9460;BME280;4768;42.664;23.240;2022-09-30T11:04:45;173211.81;;;23.40;100.00
9460;BME280;4768;42.664;23.240;2022-09-30T11:07:19;173270.91;;;23.62;100.00
9460;BME280;4768;42.664;23.240;2022-09-30T11:09:54;173324.66;;;23.82;100.00
9460;BME280;4768;42.664;23.240;2022-09-30T11:12:29;173234.66;;;23.48;100.00
9460;BME280;4768;42.664;23.240;2022-09-30T11:15:05;173326.00;;;23.82;100.00
9460;BME280;4768;42.664;23.240;2022-09-30T11:17:40;173277.66;;;23.64;100.00
9460;BME280;4768;42.664;23.240;2022-09-30T11:20:17;173293.75;;;23.70;100.00
9460;BME280;4768;42.664;23.240;2022-09-30T11:22:51;173292.44;;;23.70;100.00
9460;BME280;4768;42.664;23.240;2022-09-30T11:25:25;173300.50;;;23.73;100.00
9460;BME280;4768;42.664;23.240;2022-09-30T11:28:14;173336.75;;;23.86;100.00
9460;BME280;4768;42.664;23.240;2022-09-30T11:30:54;173260.16;;;23.58;100.00
9460;BME280;4768;42.664;23.240;2022-09-30T11:33:33;173261.47;;;23.58;100.00
9460;BME280;4768;42.664;23.240;2022-09-30T11:36:12;173358.22;;;23.94;100.00
9460;BME280;4768;42.664;23.240;2022-09-30T11:39:01;173330.03;;;23.83;100.00
9460;BME280;4768;42.664;23.240;2022-09-30T11:41:34;173414.72;;;24.15;100.00
9460;BME280;4768;42.664;23.240;2022-09-30T11:44:20;173514.16;;;24.51;100.00
9460;BME280;4768;42.664;23.240;2022-09-30T11:47:01;173499.41;;;24.46;100.00
9460;BME280;4768;42.664;23.240;2022-09-30T11:52:36;173549.09;;;24.64;100.00
9460;BME280;4768;42.664;23.240;2022-09-30T11:55:24;173430.84;;;24.21;100.00
9460;BME280;4768;42.664;23.240;2022-09-30T11:58:00;173323.34;;;23.81;100.00
9460;BME280;4768;42.664;23.240;2022-09-30T12:00:29;173268.19;;;23.61;100.00
9460;BME280;4768;42.664;23.240;2022-09-30T12:03:03;173249.38;;;23.54;100.00
9460;BME280;4768;42.664;23.240;2022-09-30T12:05:37;173221.19;;;23.43;100.00
9460;BME280;4768;42.664;23.240;2022-09-30T12:08:13;173217.16;;;23.42;100.00
9460;BME280;4768;42.664;23.240;2022-09-30T12:10:44;173175.53;;;23.27;100.00
9460;BME280;4768;42.664;23.240;2022-09-30T12:13:16;173176.88;;;23.27;100.00
9460;BME280;4768;42.664;23.240;2022-09-30T12:15:46;173225.22;;;23.45;100.00
9460;BME280;4768;42.664;23.240;2022-09-30T12:18:16;173297.78;;;23.72;100.00
9460;BME280;4768;42.664;23.240;2022-09-30T12:20:47;173356.91;;;23.93;100.00
9460;BME280;4768;42.664;23.240;2022-09-30T12:23:19;173356.91;;;23.93;100.00
9460;BME280;4768;42.664;23.240;2022-09-30T12:25:51;173416.03;;;24.15;100.00
9460;BME280;4768;42.664;23.240;2022-09-30T12:28:25;173406.66;;;24.12;100.00
9460;BME280;4768;42.664;23.240;2022-09-30T12:31:39;173295.13;;;23.71;100.00
9460;BME280;4768;42.664;23.240;2022-09-30T12:34:24;173268.19;;;23.61;100.00
9460;BME280;4768;42.664;23.240;2022-09-30T12:37:04;173346.13;;;23.89;100.00
9460;BME280;4768;42.664;23.240;2022-09-30T12:40:03;173373.03;;;23.99;100.00
9460;BME280;4768;42.664;23.240;2022-09-30T12:42:47;173414.72;;;24.15;100.00
9460;BME280;4768;42.664;23.240;2022-09-30T12:45:52;173394.56;;;24.07;100.00
9460;BME280;4768;42.664;23.240;2022-09-30T12:48:26;173412.00;;;24.14;100.00
9460;BME280;4768;42.664;23.240;2022-09-30T12:50:59;173344.81;;;23.89;100.00
9460;BME280;4768;42.664;23.240;2022-09-30T12:53:28;173344.81;;;23.89;100.00
9460;BME280;4768;42.664;23.240;2022-09-30T12:56:03;173420.06;;;24.17;100.00
9460;BME280;4768;42.664;23.240;2022-09-30T12:58:33;173407.97;;;24.12;100.00
9460;BME280;4768;42.664;23.240;2022-09-30T13:01:04;173405.28;;;24.11;100.00
9460;BME280;4768;42.664;23.240;2022-09-30T13:03:44;173426.78;;;24.19;100.00
9460;BME280;4768;42.664;23.240;2022-09-30T13:06:14;173461.69;;;24.32;100.00
9460;BME280;4768;42.664;23.240;2022-09-30T13:08:44;173460.38;;;24.31;100.00
9460;BME280;4768;42.664;23.240;2022-09-30T13:11:41;173453.63;;;24.29;100.00
9460;BME280;4768;42.664;23.240;2022-09-30T13:14:30;173452.31;;;24.29;100.00
9460;BME280;4768;42.664;23.240;2022-09-30T13:17:24;173313.91;;;23.78;100.00
9460;BME280;4768;42.664;23.240;2022-09-30T13:19:53;173299.16;;;23.72;100.00
9460;BME280;4768;42.664;23.240;2022-09-30T13:22:55;173364.97;;;23.96;100.00
9460;BME280;4768;42.664;23.240;2022-09-30T13:25:22;173375.72;;;24.00;100.00
9460;BME280;4768;42.664;23.240;2022-09-30T13:27:52;173390.47;;;24.06;100.00
9460;BME280;4768;42.664;23.240;2022-09-30T13:30:37;173352.88;;;23.92;100.00
9460;BME280;4768;42.664;23.240;2022-09-30T13:33:28;173346.13;;;23.89;100.00
9460;BME280;4768;42.664;23.240;2022-09-30T13:36:04;173295.13;;;23.71;100.00